Terminal Aerodrome Forecast
Issued by NWS

Home | Current Version | Previous Version | Text Only | Print | Product List | Glossary On
Versions: 1 2 3 4 5 6 7 8 9 10 11 12 13 14 15 16 17
000
FTUS42 KTBW 180800 AAA
TAFPGD
TAF AMD
KPGD 180841Z 1809/1906 00000KT P6SM VCSH SCT015 SCT030
      TEMPO 1809/1812 5SM SHRA BKN030
     FM181200 03004KT P6SM SCT025 SCT250
     FM181800 29007KT P6SM VCTS SCT045CB BKN150
     FM190100 07003KT P6SM VCSH BKN040 BKN250=

USA.gov is the U.S. government's official web portal to all federal, state and local government web resources and services.